LFLB/CMF METAR and TAF weather

Enter ICAO airport designator
Station Type Date Time Source
LFLB METAR 2022/09/28 18:30 UTC NOAA

LFLB 281830Z AUTO 19006KT 9999 BKN052/// BKN062/// BKN082/// ///TCU 13/11 Q1002 TEMPO VRB15G25KT 4000 RA BECMG SCT020 BKN050


Station Type Date Time Source
LFLB Decoded METAR 2022/09/28 18:30 UTC NOAA

Chambery / Aix-Les-Bains, France (LFLB) 45-39N 005-53E 239M
Sep 28, 2022 - 02:30 PM EDT / 2022.09.28 1830 UTC
Wind: from the S (190 degrees) at 7 MPH (6 KT):0
Visibility: greater than 7 mile(s):0
Sky conditions: mostly cloudy
Weather: Towering cumulus clouds observed
Temperature: 55 F (13 C)
Dew Point: 51 F (11 C)
Relative Humidity: 87%
Pressure (altimeter): 29.59 in. Hg (1002 hPa)
ob: LFLB 281830Z AUTO 19006KT 9999 BKN052/// BKN062/// BKN082/// ///TCU 13/11 Q1002 TEMPO VRB15G25KT 4000 RA BECMG SCT020 BKN050
cycle: 18

Station Type Date Time Source
LFLB TAF 2022/09/28 15:21 UTC NOAA

TAF TAF LFLB 281400Z 2815/2915 19007KT 9999 SCT020 BKN050
TEMPO 2815/2820 VRB15G25KT 4000 RA BKN014 SCT040TCU PROB40
TEMPO 2815/2817 2000 TSRA BKN009 SCT030CB
TEMPO 2823/2914 3000 -RA BKN013 SCT030TCU
BECMG 2905/2907 VRB03KT

Example: see airport list